Arnold, United Kingdom
Current Conditions -  °F | °C
As of 11:50 AM on Friday 21 Nov 2014 (Local Time) from EGNX Reporting Station
Broken Clouds Broken Clouds  
Wind Chill: 40°   Ceiling: 1200
Heat Index: 46°   Visibility: 4mi
Dew Point: 43°   Wind: 16mph
Humidity: 87%   Direction: 110°ESE
Pressure: 30.06"   Gusts: NA
Location:  53.01°N, 1.13°W
Report Text: EGNX 211150Z 11014KT 6000 BKN012 BKN017 08/06 Q1018
Loading
Personal Weather Stations






























Interactive Weather Map New forecast layout! Learn more

10-Day Weather Forecast

Advertisements
Track Severe Weather on mobile